sensor_id;sensor_type;location;lat;lon;timestamp;P1;durP1;ratioP1;P2;durP2;ratioP2
5149;SDS011;2593;52.466;13.436;2022-08-19T00:00:18;26.63;;;15.00;;
5149;SDS011;2593;52.466;13.436;2022-08-19T00:02:44;17.17;;;14.73;;
5149;SDS011;2593;52.466;13.436;2022-08-19T00:05:12;16.70;;;14.67;;
5149;SDS011;2593;52.466;13.436;2022-08-19T00:07:39;18.10;;;13.67;;
5149;SDS011;2593;52.466;13.436;2022-08-19T00:10:06;17.90;;;13.97;;
5149;SDS011;2593;52.466;13.436;2022-08-19T00:12:32;14.77;;;13.00;;
5149;SDS011;2593;52.466;13.436;2022-08-19T00:14:58;19.73;;;14.97;;
5149;SDS011;2593;52.466;13.436;2022-08-19T00:17:24;18.23;;;15.20;;
5149;SDS011;2593;52.466;13.436;2022-08-19T00:19:49;18.50;;;14.90;;
5149;SDS011;2593;52.466;13.436;2022-08-19T00:22:15;17.47;;;14.37;;
5149;SDS011;2593;52.466;13.436;2022-08-19T00:24:43;18.77;;;16.37;;
5149;SDS011;2593;52.466;13.436;2022-08-19T00:27:10;20.50;;;15.40;;
5149;SDS011;2593;52.466;13.436;2022-08-19T00:29:36;23.47;;;15.27;;
5149;SDS011;2593;52.466;13.436;2022-08-19T00:32:03;21.47;;;15.83;;
5149;SDS011;2593;52.466;13.436;2022-08-19T00:34:29;21.80;;;13.10;;
5149;SDS011;2593;52.466;13.436;2022-08-19T00:36:55;16.13;;;14.00;;
5149;SDS011;2593;52.466;13.436;2022-08-19T00:39:21;18.10;;;13.57;;
5149;SDS011;2593;52.466;13.436;2022-08-19T00:41:47;14.80;;;13.20;;
5149;SDS011;2593;52.466;13.436;2022-08-19T00:44:18;17.10;;;14.10;;
5149;SDS011;2593;52.466;13.436;2022-08-19T00:46:47;16.20;;;12.70;;
5149;SDS011;2593;52.466;13.436;2022-08-19T00:51:58;19.00;;;14.27;;
5149;SDS011;2593;52.466;13.436;2022-08-19T00:54:29;16.30;;;14.20;;
5149;SDS011;2593;52.466;13.436;2022-08-19T00:56:56;16.20;;;13.47;;
5149;SDS011;2593;52.466;13.436;2022-08-19T00:59:23;18.70;;;13.77;;
5149;SDS011;2593;52.466;13.436;2022-08-19T01:01:49;24.60;;;15.50;;
5149;SDS011;2593;52.466;13.436;2022-08-19T01:04:15;14.90;;;12.33;;
5149;SDS011;2593;52.466;13.436;2022-08-19T01:06:40;15.17;;;12.50;;
5149;SDS011;2593;52.466;13.436;2022-08-19T01:09:06;18.63;;;13.13;;
5149;SDS011;2593;52.466;13.436;2022-08-19T01:11:34;16.00;;;13.50;;
5149;SDS011;2593;52.466;13.436;2022-08-19T01:14:02;18.10;;;14.80;;
5149;SDS011;2593;52.466;13.436;2022-08-19T01:16:30;19.83;;;14.83;;
5149;SDS011;2593;52.466;13.436;2022-08-19T01:18:57;20.67;;;15.90;;
5149;SDS011;2593;52.466;13.436;2022-08-19T01:21:27;20.93;;;15.83;;
5149;SDS011;2593;52.466;13.436;2022-08-19T01:24:16;23.37;;;16.10;;
5149;SDS011;2593;52.466;13.436;2022-08-19T01:26:42;23.43;;;17.07;;
5149;SDS011;2593;52.466;13.436;2022-08-19T01:29:09;19.60;;;16.77;;
5149;SDS011;2593;52.466;13.436;2022-08-19T01:31:36;28.47;;;19.10;;
5149;SDS011;2593;52.466;13.436;2022-08-19T01:34:04;28.33;;;18.63;;
5149;SDS011;2593;52.466;13.436;2022-08-19T01:36:31;20.40;;;18.20;;
5149;SDS011;2593;52.466;13.436;2022-08-19T01:39:00;29.90;;;20.13;;
5149;SDS011;2593;52.466;13.436;2022-08-19T01:41:26;33.00;;;20.43;;
5149;SDS011;2593;52.466;13.436;2022-08-19T01:43:52;28.73;;;20.53;;
5149;SDS011;2593;52.466;13.436;2022-08-19T01:46:18;37.50;;;20.33;;
5149;SDS011;2593;52.466;13.436;2022-08-19T01:48:45;28.63;;;21.47;;
5149;SDS011;2593;52.466;13.436;2022-08-19T01:51:12;26.90;;;20.90;;
5149;SDS011;2593;52.466;13.436;2022-08-19T01:53:39;32.50;;;19.97;;
5149;SDS011;2593;52.466;13.436;2022-08-19T01:56:05;36.20;;;20.90;;
5149;SDS011;2593;52.466;13.436;2022-08-19T01:58:32;32.13;;;21.80;;
5149;SDS011;2593;52.466;13.436;2022-08-19T02:01:04;34.40;;;21.30;;
5149;SDS011;2593;52.466;13.436;2022-08-19T02:03:30;30.80;;;20.10;;
5149;SDS011;2593;52.466;13.436;2022-08-19T02:05:57;37.80;;;21.97;;
5149;SDS011;2593;52.466;13.436;2022-08-19T02:08:25;31.40;;;20.67;;
5149;SDS011;2593;52.466;13.436;2022-08-19T02:10:51;30.67;;;20.93;;
5149;SDS011;2593;52.466;13.436;2022-08-19T02:13:17;39.27;;;22.43;;
5149;SDS011;2593;52.466;13.436;2022-08-19T02:15:43;35.50;;;21.77;;
5149;SDS011;2593;52.466;13.436;2022-08-19T02:18:09;36.53;;;21.37;;
5149;SDS011;2593;52.466;13.436;2022-08-19T02:20:36;29.60;;;21.20;;
5149;SDS011;2593;52.466;13.436;2022-08-19T02:23:03;41.37;;;25.63;;
5149;SDS011;2593;52.466;13.436;2022-08-19T02:25:29;33.37;;;22.97;;
5149;SDS011;2593;52.466;13.436;2022-08-19T02:27:55;31.93;;;21.60;;
5149;SDS011;2593;52.466;13.436;2022-08-19T02:30:20;29.93;;;20.70;;
5149;SDS011;2593;52.466;13.436;2022-08-19T02:32:46;30.27;;;20.70;;
5149;SDS011;2593;52.466;13.436;2022-08-19T02:35:13;26.53;;;19.90;;
5149;SDS011;2593;52.466;13.436;2022-08-19T02:37:40;30.50;;;21.07;;
5149;SDS011;2593;52.466;13.436;2022-08-19T02:40:25;31.53;;;21.03;;
5149;SDS011;2593;52.466;13.436;2022-08-19T02:42:52;31.10;;;23.00;;
5149;SDS011;2593;52.466;13.436;2022-08-19T02:45:17;33.43;;;22.73;;
5149;SDS011;2593;52.466;13.436;2022-08-19T02:47:43;44.23;;;23.80;;
5149;SDS011;2593;52.466;13.436;2022-08-19T02:50:08;33.43;;;22.37;;
5149;SDS011;2593;52.466;13.436;2022-08-19T02:52:34;31.27;;;23.47;;
5149;SDS011;2593;52.466;13.436;2022-08-19T02:55:01;36.50;;;23.53;;
5149;SDS011;2593;52.466;13.436;2022-08-19T02:57:27;38.33;;;23.47;;
5149;SDS011;2593;52.466;13.436;2022-08-19T02:59:53;43.03;;;25.60;;
5149;SDS011;2593;52.466;13.436;2022-08-19T03:02:19;43.63;;;26.97;;
5149;SDS011;2593;52.466;13.436;2022-08-19T03:04:44;43.73;;;29.13;;
5149;SDS011;2593;52.466;13.436;2022-08-19T03:07:13;43.30;;;27.80;;
5149;SDS011;2593;52.466;13.436;2022-08-19T03:09:40;38.13;;;25.97;;
5149;SDS011;2593;52.466;13.436;2022-08-19T03:12:08;36.53;;;26.13;;
5149;SDS011;2593;52.466;13.436;2022-08-19T03:14:34;32.23;;;23.13;;
5149;SDS011;2593;52.466;13.436;2022-08-19T03:17:00;40.20;;;22.50;;
5149;SDS011;2593;52.466;13.436;2022-08-19T03:19:26;28.50;;;22.37;;
5149;SDS011;2593;52.466;13.436;2022-08-19T03:21:52;30.20;;;22.33;;
5149;SDS011;2593;52.466;13.436;2022-08-19T03:24:18;29.50;;;20.80;;
5149;SDS011;2593;52.466;13.436;2022-08-19T03:26:46;24.10;;;19.20;;
5149;SDS011;2593;52.466;13.436;2022-08-19T03:29:15;25.40;;;20.10;;
5149;SDS011;2593;52.466;13.436;2022-08-19T03:31:42;26.43;;;19.50;;
5149;SDS011;2593;52.466;13.436;2022-08-19T03:34:10;31.17;;;20.10;;
5149;SDS011;2593;52.466;13.436;2022-08-19T03:36:36;28.40;;;19.93;;
5149;SDS011;2593;52.466;13.436;2022-08-19T03:39:03;28.53;;;21.10;;
5149;SDS011;2593;52.466;13.436;2022-08-19T03:41:30;29.70;;;20.00;;
5149;SDS011;2593;52.466;13.436;2022-08-19T03:43:57;26.70;;;19.80;;
5149;SDS011;2593;52.466;13.436;2022-08-19T03:46:29;26.90;;;21.03;;
5149;SDS011;2593;52.466;13.436;2022-08-19T03:48:57;30.77;;;21.30;;
5149;SDS011;2593;52.466;13.436;2022-08-19T03:53:53;31.33;;;20.73;;
5149;SDS011;2593;52.466;13.436;2022-08-19T03:56:20;24.43;;;20.13;;
5149;SDS011;2593;52.466;13.436;2022-08-19T03:58:46;26.23;;;20.57;;
5149;SDS011;2593;52.466;13.436;2022-08-19T04:01:14;27.40;;;19.63;;
5149;SDS011;2593;52.466;13.436;2022-08-19T04:03:43;26.30;;;20.63;;
5149;SDS011;2593;52.466;13.436;2022-08-19T04:06:12;22.13;;;18.60;;
5149;SDS011;2593;52.466;13.436;2022-08-19T04:08:42;25.93;;;20.03;;
5149;SDS011;2593;52.466;13.436;2022-08-19T04:11:11;25.70;;;19.30;;
5149;SDS011;2593;52.466;13.436;2022-08-19T04:13:39;22.53;;;19.50;;
5149;SDS011;2593;52.466;13.436;2022-08-19T04:16:05;23.87;;;19.07;;
5149;SDS011;2593;52.466;13.436;2022-08-19T04:18:33;25.70;;;19.00;;
5149;SDS011;2593;52.466;13.436;2022-08-19T04:20:59;22.07;;;17.63;;
5149;SDS011;2593;52.466;13.436;2022-08-19T04:23:25;26.60;;;20.77;;
5149;SDS011;2593;52.466;13.436;2022-08-19T04:25:52;26.17;;;18.73;;
5149;SDS011;2593;52.466;13.436;2022-08-19T04:28:19;26.10;;;19.73;;
5149;SDS011;2593;52.466;13.436;2022-08-19T04:30:46;27.10;;;17.10;;
5149;SDS011;2593;52.466;13.436;2022-08-19T04:33:13;22.07;;;17.10;;
5149;SDS011;2593;52.466;13.436;2022-08-19T04:35:44;20.03;;;17.83;;
5149;SDS011;2593;52.466;13.436;2022-08-19T04:38:11;38.13;;;18.27;;
5149;SDS011;2593;52.466;13.436;2022-08-19T04:40:45;22.60;;;17.97;;
5149;SDS011;2593;52.466;13.436;2022-08-19T04:43:31;22.23;;;18.90;;
5149;SDS011;2593;52.466;13.436;2022-08-19T04:45:59;20.70;;;17.87;;
5149;SDS011;2593;52.466;13.436;2022-08-19T04:48:33;22.50;;;17.30;;
5149;SDS011;2593;52.466;13.436;2022-08-19T04:50:59;19.37;;;16.13;;
5149;SDS011;2593;52.466;13.436;2022-08-19T04:53:25;24.93;;;16.97;;
5149;SDS011;2593;52.466;13.436;2022-08-19T04:55:54;22.10;;;17.93;;
5149;SDS011;2593;52.466;13.436;2022-08-19T04:58:21;26.70;;;17.33;;
5149;SDS011;2593;52.466;13.436;2022-08-19T05:00:47;22.43;;;15.90;;
5149;SDS011;2593;52.466;13.436;2022-08-19T05:03:13;21.63;;;16.80;;
5149;SDS011;2593;52.466;13.436;2022-08-19T05:05:42;17.27;;;15.10;;
5149;SDS011;2593;52.466;13.436;2022-08-19T05:08:13;18.67;;;16.73;;
5149;SDS011;2593;52.466;13.436;2022-08-19T05:10:45;20.13;;;16.90;;
5149;SDS011;2593;52.466;13.436;2022-08-19T05:13:13;25.80;;;17.50;;
5149;SDS011;2593;52.466;13.436;2022-08-19T05:15:39;18.80;;;16.80;;
5149;SDS011;2593;52.466;13.436;2022-08-19T05:18:05;18.63;;;16.63;;
5149;SDS011;2593;52.466;13.436;2022-08-19T05:20:49;22.27;;;17.23;;
5149;SDS011;2593;52.466;13.436;2022-08-19T05:23:33;18.70;;;16.70;;
5149;SDS011;2593;52.466;13.436;2022-08-19T05:25:59;19.50;;;15.23;;
5149;SDS011;2593;52.466;13.436;2022-08-19T05:28:25;18.73;;;16.47;;
5149;SDS011;2593;52.466;13.436;2022-08-19T05:30:50;17.40;;;15.33;;
5149;SDS011;2593;52.466;13.436;2022-08-19T05:33:17;21.37;;;16.00;;
5149;SDS011;2593;52.466;13.436;2022-08-19T05:35:43;24.50;;;16.80;;
5149;SDS011;2593;52.466;13.436;2022-08-19T05:38:09;22.00;;;17.10;;
5149;SDS011;2593;52.466;13.436;2022-08-19T05:40:36;19.97;;;16.97;;
5149;SDS011;2593;52.466;13.436;2022-08-19T05:43:04;18.80;;;15.00;;
5149;SDS011;2593;52.466;13.436;2022-08-19T05:45:31;18.00;;;14.70;;
5149;SDS011;2593;52.466;13.436;2022-08-19T05:47:59;18.70;;;15.33;;
5149;SDS011;2593;52.466;13.436;2022-08-19T05:50:25;23.27;;;15.80;;
5149;SDS011;2593;52.466;13.436;2022-08-19T05:52:51;35.40;;;17.53;;
5149;SDS011;2593;52.466;13.436;2022-08-19T05:55:17;21.40;;;15.80;;
5149;SDS011;2593;52.466;13.436;2022-08-19T05:57:45;25.07;;;15.70;;
5149;SDS011;2593;52.466;13.436;2022-08-19T06:00:11;18.43;;;14.93;;
5149;SDS011;2593;52.466;13.436;2022-08-19T06:02:37;21.93;;;16.13;;
5149;SDS011;2593;52.466;13.436;2022-08-19T06:05:04;16.50;;;14.80;;
5149;SDS011;2593;52.466;13.436;2022-08-19T06:07:38;35.47;;;16.30;;
5149;SDS011;2593;52.466;13.436;2022-08-19T06:10:05;24.57;;;16.97;;
5149;SDS011;2593;52.466;13.436;2022-08-19T06:12:32;19.67;;;16.07;;
5149;SDS011;2593;52.466;13.436;2022-08-19T06:15:00;17.37;;;15.30;;
5149;SDS011;2593;52.466;13.436;2022-08-19T06:17:29;26.47;;;18.37;;
5149;SDS011;2593;52.466;13.436;2022-08-19T06:19:55;19.60;;;14.80;;
5149;SDS011;2593;52.466;13.436;2022-08-19T06:22:21;21.93;;;17.40;;
5149;SDS011;2593;52.466;13.436;2022-08-19T06:24:47;24.80;;;17.10;;
5149;SDS011;2593;52.466;13.436;2022-08-19T06:27:12;19.53;;;16.00;;
5149;SDS011;2593;52.466;13.436;2022-08-19T06:29:38;18.33;;;15.40;;
5149;SDS011;2593;52.466;13.436;2022-08-19T06:32:04;19.83;;;16.60;;
5149;SDS011;2593;52.466;13.436;2022-08-19T06:34:31;24.93;;;15.50;;
5149;SDS011;2593;52.466;13.436;2022-08-19T06:36:59;22.33;;;16.50;;
5149;SDS011;2593;52.466;13.436;2022-08-19T06:39:27;22.30;;;16.90;;
5149;SDS011;2593;52.466;13.436;2022-08-19T06:41:57;21.93;;;16.13;;
5149;SDS011;2593;52.466;13.436;2022-08-19T06:44:25;19.73;;;16.30;;
5149;SDS011;2593;52.466;13.436;2022-08-19T06:46:55;23.17;;;16.97;;
5149;SDS011;2593;52.466;13.436;2022-08-19T06:49:22;18.40;;;15.20;;
5149;SDS011;2593;52.466;13.436;2022-08-19T06:51:48;20.73;;;15.73;;
5149;SDS011;2593;52.466;13.436;2022-08-19T06:54:15;19.10;;;15.53;;
5149;SDS011;2593;52.466;13.436;2022-08-19T06:56:42;27.50;;;17.73;;
5149;SDS011;2593;52.466;13.436;2022-08-19T06:59:11;35.60;;;16.57;;
5149;SDS011;2593;52.466;13.436;2022-08-19T07:01:40;22.03;;;16.20;;
5149;SDS011;2593;52.466;13.436;2022-08-19T07:04:12;21.33;;;16.57;;
5149;SDS011;2593;52.466;13.436;2022-08-19T07:06:43;29.20;;;16.33;;
5149;SDS011;2593;52.466;13.436;2022-08-19T07:09:10;28.67;;;16.23;;
5149;SDS011;2593;52.466;13.436;2022-08-19T07:11:44;18.73;;;15.93;;
5149;SDS011;2593;52.466;13.436;2022-08-19T07:14:10;20.67;;;16.03;;
5149;SDS011;2593;52.466;13.436;2022-08-19T07:16:36;19.80;;;15.80;;
5149;SDS011;2593;52.466;13.436;2022-08-19T07:19:01;21.03;;;15.80;;
5149;SDS011;2593;52.466;13.436;2022-08-19T07:21:27;22.43;;;17.27;;
5149;SDS011;2593;52.466;13.436;2022-08-19T07:23:54;21.97;;;16.33;;
5149;SDS011;2593;52.466;13.436;2022-08-19T07:26:22;20.07;;;15.73;;
5149;SDS011;2593;52.466;13.436;2022-08-19T07:28:50;25.70;;;16.70;;
5149;SDS011;2593;52.466;13.436;2022-08-19T07:31:17;25.63;;;16.67;;
5149;SDS011;2593;52.466;13.436;2022-08-19T07:33:45;23.87;;;17.37;;
5149;SDS011;2593;52.466;13.436;2022-08-19T07:36:13;21.60;;;16.50;;
5149;SDS011;2593;52.466;13.436;2022-08-19T07:38:41;22.97;;;16.73;;
5149;SDS011;2593;52.466;13.436;2022-08-19T07:41:11;25.30;;;16.60;;
5149;SDS011;2593;52.466;13.436;2022-08-19T07:43:38;21.67;;;16.67;;
5149;SDS011;2593;52.466;13.436;2022-08-19T07:46:05;25.47;;;17.47;;
5149;SDS011;2593;52.466;13.436;2022-08-19T07:48:31;24.13;;;18.00;;
5149;SDS011;2593;52.466;13.436;2022-08-19T07:50:58;22.10;;;17.77;;
5149;SDS011;2593;52.466;13.436;2022-08-19T07:53:27;24.70;;;17.87;;
5149;SDS011;2593;52.466;13.436;2022-08-19T07:55:53;22.77;;;16.63;;
5149;SDS011;2593;52.466;13.436;2022-08-19T07:58:20;20.40;;;17.53;;
5149;SDS011;2593;52.466;13.436;2022-08-19T08:00:48;20.30;;;16.40;;
5149;SDS011;2593;52.466;13.436;2022-08-19T08:03:17;25.33;;;17.40;;
5149;SDS011;2593;52.466;13.436;2022-08-19T08:05:44;19.83;;;17.70;;
5149;SDS011;2593;52.466;13.436;2022-08-19T08:08:28;19.30;;;16.47;;
5149;SDS011;2593;52.466;13.436;2022-08-19T08:11:10;24.37;;;17.90;;
5149;SDS011;2593;52.466;13.436;2022-08-19T08:13:36;28.90;;;19.27;;
5149;SDS011;2593;52.466;13.436;2022-08-19T08:16:02;26.87;;;17.40;;
5149;SDS011;2593;52.466;13.436;2022-08-19T08:18:28;22.53;;;18.17;;
5149;SDS011;2593;52.466;13.436;2022-08-19T08:20:54;31.13;;;20.60;;
5149;SDS011;2593;52.466;13.436;2022-08-19T08:23:20;21.50;;;18.33;;
5149;SDS011;2593;52.466;13.436;2022-08-19T08:25:54;24.40;;;18.47;;
5149;SDS011;2593;52.466;13.436;2022-08-19T08:28:21;22.80;;;17.60;;
5149;SDS011;2593;52.466;13.436;2022-08-19T08:30:48;27.87;;;18.77;;
5149;SDS011;2593;52.466;13.436;2022-08-19T08:33:18;27.03;;;17.17;;
5149;SDS011;2593;52.466;13.436;2022-08-19T08:35:46;32.30;;;18.80;;
5149;SDS011;2593;52.466;13.436;2022-08-19T08:38:12;25.23;;;19.63;;
5149;SDS011;2593;52.466;13.436;2022-08-19T08:43:21;19.70;;;17.37;;
5149;SDS011;2593;52.466;13.436;2022-08-19T08:46:05;24.30;;;17.20;;
5149;SDS011;2593;52.466;13.436;2022-08-19T08:48:38;19.77;;;17.27;;
5149;SDS011;2593;52.466;13.436;2022-08-19T08:51:18;21.30;;;19.07;;
5149;SDS011;2593;52.466;13.436;2022-08-19T08:53:49;20.40;;;17.20;;
5149;SDS011;2593;52.466;13.436;2022-08-19T08:56:16;20.97;;;17.37;;
5149;SDS011;2593;52.466;13.436;2022-08-19T09:01:46;36.93;;;21.27;;
5149;SDS011;2593;52.466;13.436;2022-08-19T09:04:13;35.07;;;21.00;;
5149;SDS011;2593;52.466;13.436;2022-08-19T09:09:21;24.40;;;19.53;;
5149;SDS011;2593;52.466;13.436;2022-08-19T09:14:53;26.30;;;21.00;;
5149;SDS011;2593;52.466;13.436;2022-08-19T09:17:25;22.87;;;19.80;;
5149;SDS011;2593;52.466;13.436;2022-08-19T09:20:06;30.90;;;20.60;;
5149;SDS011;2593;52.466;13.436;2022-08-19T09:22:38;21.93;;;18.40;;
5149;SDS011;2593;52.466;13.436;2022-08-19T09:25:07;22.10;;;18.57;;
5149;SDS011;2593;52.466;13.436;2022-08-19T09:27:35;27.10;;;19.23;;
5149;SDS011;2593;52.466;13.436;2022-08-19T09:30:03;24.97;;;21.53;;
5149;SDS011;2593;52.466;13.436;2022-08-19T09:32:30;21.23;;;18.87;;
5149;SDS011;2593;52.466;13.436;2022-08-19T09:34:56;22.13;;;18.27;;
5149;SDS011;2593;52.466;13.436;2022-08-19T09:37:23;22.40;;;18.20;;
5149;SDS011;2593;52.466;13.436;2022-08-19T09:39:49;20.87;;;16.50;;
5149;SDS011;2593;52.466;13.436;2022-08-19T09:42:15;24.80;;;18.60;;
5149;SDS011;2593;52.466;13.436;2022-08-19T09:44:41;30.80;;;18.80;;
5149;SDS011;2593;52.466;13.436;2022-08-19T09:47:08;22.90;;;18.97;;
5149;SDS011;2593;52.466;13.436;2022-08-19T09:49:35;27.57;;;19.10;;
5149;SDS011;2593;52.466;13.436;2022-08-19T09:52:00;21.53;;;17.53;;
5149;SDS011;2593;52.466;13.436;2022-08-19T09:54:26;26.63;;;19.73;;
5149;SDS011;2593;52.466;13.436;2022-08-19T09:56:52;27.87;;;17.80;;
5149;SDS011;2593;52.466;13.436;2022-08-19T09:59:18;20.10;;;16.17;;
5149;SDS011;2593;52.466;13.436;2022-08-19T10:01:44;22.30;;;15.23;;
5149;SDS011;2593;52.466;13.436;2022-08-19T10:04:09;26.17;;;16.00;;
5149;SDS011;2593;52.466;13.436;2022-08-19T10:06:36;22.80;;;17.50;;
5149;SDS011;2593;52.466;13.436;2022-08-19T10:09:05;22.83;;;16.90;;
5149;SDS011;2593;52.466;13.436;2022-08-19T10:11:33;21.23;;;16.00;;
5149;SDS011;2593;52.466;13.436;2022-08-19T10:14:00;24.10;;;17.30;;
5149;SDS011;2593;52.466;13.436;2022-08-19T10:16:26;18.53;;;16.60;;
5149;SDS011;2593;52.466;13.436;2022-08-19T10:18:52;20.33;;;16.57;;
5149;SDS011;2593;52.466;13.436;2022-08-19T10:21:21;20.70;;;17.43;;
5149;SDS011;2593;52.466;13.436;2022-08-19T10:23:49;19.03;;;15.40;;
5149;SDS011;2593;52.466;13.436;2022-08-19T10:26:17;20.87;;;17.20;;
5149;SDS011;2593;52.466;13.436;2022-08-19T10:28:44;27.43;;;15.63;;
5149;SDS011;2593;52.466;13.436;2022-08-19T10:31:11;20.30;;;15.53;;
5149;SDS011;2593;52.466;13.436;2022-08-19T10:33:42;25.60;;;17.77;;
5149;SDS011;2593;52.466;13.436;2022-08-19T10:36:11;18.53;;;16.30;;
5149;SDS011;2593;52.466;13.436;2022-08-19T10:38:42;20.03;;;16.80;;
5149;SDS011;2593;52.466;13.436;2022-08-19T10:41:13;15.57;;;13.97;;
5149;SDS011;2593;52.466;13.436;2022-08-19T10:43:44;20.97;;;16.13;;
5149;SDS011;2593;52.466;13.436;2022-08-19T10:46:11;20.70;;;16.77;;
5149;SDS011;2593;52.466;13.436;2022-08-19T10:48:39;17.63;;;15.83;;
5149;SDS011;2593;52.466;13.436;2022-08-19T10:51:06;21.50;;;18.33;;
5149;SDS011;2593;52.466;13.436;2022-08-19T10:53:50;21.53;;;16.37;;
5149;SDS011;2593;52.466;13.436;2022-08-19T10:56:16;22.67;;;15.23;;
5149;SDS011;2593;52.466;13.436;2022-08-19T10:59:02;16.53;;;14.77;;
5149;SDS011;2593;52.466;13.436;2022-08-19T11:01:29;19.93;;;16.20;;
5149;SDS011;2593;52.466;13.436;2022-08-19T11:03:57;17.60;;;14.30;;
5149;SDS011;2593;52.466;13.436;2022-08-19T11:06:24;19.00;;;15.27;;
5149;SDS011;2593;52.466;13.436;2022-08-19T11:08:50;25.10;;;16.03;;
5149;SDS011;2593;52.466;13.436;2022-08-19T11:11:17;19.00;;;16.67;;
5149;SDS011;2593;52.466;13.436;2022-08-19T11:13:42;18.30;;;16.10;;
5149;SDS011;2593;52.466;13.436;2022-08-19T11:16:12;17.87;;;15.07;;
5149;SDS011;2593;52.466;13.436;2022-08-19T11:18:41;20.27;;;16.73;;
5149;SDS011;2593;52.466;13.436;2022-08-19T11:21:13;16.90;;;14.33;;
5149;SDS011;2593;52.466;13.436;2022-08-19T11:23:42;21.63;;;15.43;;
5149;SDS011;2593;52.466;13.436;2022-08-19T11:26:09;18.53;;;15.77;;
5149;SDS011;2593;52.466;13.436;2022-08-19T11:28:34;15.97;;;14.27;;
5149;SDS011;2593;52.466;13.436;2022-08-19T11:31:01;16.17;;;14.53;;
5149;SDS011;2593;52.466;13.436;2022-08-19T11:33:28;19.07;;;14.87;;
5149;SDS011;2593;52.466;13.436;2022-08-19T11:35:56;17.20;;;13.13;;
5149;SDS011;2593;52.466;13.436;2022-08-19T11:38:23;15.33;;;13.73;;
5149;SDS011;2593;52.466;13.436;2022-08-19T11:40:56;16.17;;;14.50;;
5149;SDS011;2593;52.466;13.436;2022-08-19T11:43:23;22.30;;;16.10;;
5149;SDS011;2593;52.466;13.436;2022-08-19T11:45:51;28.53;;;17.73;;
5149;SDS011;2593;52.466;13.436;2022-08-19T11:48:17;17.57;;;14.60;;
5149;SDS011;2593;52.466;13.436;2022-08-19T11:50:46;23.30;;;13.67;;
5149;SDS011;2593;52.466;13.436;2022-08-19T11:53:17;15.13;;;13.63;;
5149;SDS011;2593;52.466;13.436;2022-08-19T11:55:44;16.27;;;13.53;;
5149;SDS011;2593;52.466;13.436;2022-08-19T11:58:10;16.50;;;13.77;;
5149;SDS011;2593;52.466;13.436;2022-08-19T12:00:37;16.97;;;14.50;;
5149;SDS011;2593;52.466;13.436;2022-08-19T12:03:03;16.27;;;13.17;;
5149;SDS011;2593;52.466;13.436;2022-08-19T12:05:29;18.47;;;14.40;;
5149;SDS011;2593;52.466;13.436;2022-08-19T12:07:55;14.90;;;12.50;;
5149;SDS011;2593;52.466;13.436;2022-08-19T12:10:21;19.33;;;13.97;;
5149;SDS011;2593;52.466;13.436;2022-08-19T12:12:47;16.90;;;14.33;;
5149;SDS011;2593;52.466;13.436;2022-08-19T12:15:12;13.43;;;12.13;;
5149;SDS011;2593;52.466;13.436;2022-08-19T12:17:39;16.73;;;12.47;;
5149;SDS011;2593;52.466;13.436;2022-08-19T12:20:06;13.40;;;11.93;;
5149;SDS011;2593;52.466;13.436;2022-08-19T12:22:34;16.37;;;12.07;;
5149;SDS011;2593;52.466;13.436;2022-08-19T12:25:01;13.83;;;12.43;;
5149;SDS011;2593;52.466;13.436;2022-08-19T12:27:27;13.37;;;10.77;;
5149;SDS011;2593;52.466;13.436;2022-08-19T12:29:52;14.57;;;11.40;;
5149;SDS011;2593;52.466;13.436;2022-08-19T12:32:18;14.07;;;10.83;;
5149;SDS011;2593;52.466;13.436;2022-08-19T12:34:43;13.00;;;11.70;;
5149;SDS011;2593;52.466;13.436;2022-08-19T12:37:12;15.90;;;11.33;;
5149;SDS011;2593;52.466;13.436;2022-08-19T12:39:38;15.57;;;10.70;;
5149;SDS011;2593;52.466;13.436;2022-08-19T12:42:06;10.93;;;9.70;;
5149;SDS011;2593;52.466;13.436;2022-08-19T12:44:34;19.17;;;9.33;;
5149;SDS011;2593;52.466;13.436;2022-08-19T12:47:00;11.97;;;10.23;;
5149;SDS011;2593;52.466;13.436;2022-08-19T12:49:28;10.90;;;9.80;;
5149;SDS011;2593;52.466;13.436;2022-08-19T12:51:54;13.60;;;10.57;;
5149;SDS011;2593;52.466;13.436;2022-08-19T12:54:19;12.40;;;10.67;;
5149;SDS011;2593;52.466;13.436;2022-08-19T12:56:45;16.60;;;10.10;;
5149;SDS011;2593;52.466;13.436;2022-08-19T12:59:10;18.10;;;10.07;;
5149;SDS011;2593;52.466;13.436;2022-08-19T13:01:36;9.83;;;8.90;;
5149;SDS011;2593;52.466;13.436;2022-08-19T13:04:03;14.47;;;10.90;;
5149;SDS011;2593;52.466;13.436;2022-08-19T13:06:28;11.03;;;10.03;;
5149;SDS011;2593;52.466;13.436;2022-08-19T13:08:55;12.43;;;10.90;;
5149;SDS011;2593;52.466;13.436;2022-08-19T13:11:20;12.87;;;11.17;;
5149;SDS011;2593;52.466;13.436;2022-08-19T13:13:49;19.23;;;11.77;;
5149;SDS011;2593;52.466;13.436;2022-08-19T13:16:16;12.43;;;11.17;;
5149;SDS011;2593;52.466;13.436;2022-08-19T13:18:43;11.30;;;9.80;;
5149;SDS011;2593;52.466;13.436;2022-08-19T13:21:12;28.13;;;17.97;;
5149;SDS011;2593;52.466;13.436;2022-08-19T13:23:38;14.30;;;11.37;;
5149;SDS011;2593;52.466;13.436;2022-08-19T13:26:05;13.93;;;12.40;;
5149;SDS011;2593;52.466;13.436;2022-08-19T13:28:32;16.80;;;12.30;;
5149;SDS011;2593;52.466;13.436;2022-08-19T13:31:17;19.27;;;12.13;;
5149;SDS011;2593;52.466;13.436;2022-08-19T13:34:03;16.03;;;12.07;;
5149;SDS011;2593;52.466;13.436;2022-08-19T13:36:30;20.03;;;12.30;;
5149;SDS011;2593;52.466;13.436;2022-08-19T13:38:59;14.20;;;11.40;;
5149;SDS011;2593;52.466;13.436;2022-08-19T13:41:26;12.97;;;11.73;;
5149;SDS011;2593;52.466;13.436;2022-08-19T13:43:52;32.33;;;11.20;;
5149;SDS011;2593;52.466;13.436;2022-08-19T13:46:18;17.10;;;12.10;;
5149;SDS011;2593;52.466;13.436;2022-08-19T13:48:44;14.93;;;11.53;;
5149;SDS011;2593;52.466;13.436;2022-08-19T13:51:11;15.80;;;13.77;;
5149;SDS011;2593;52.466;13.436;2022-08-19T13:53:37;13.47;;;12.20;;
5149;SDS011;2593;52.466;13.436;2022-08-19T13:56:08;13.00;;;11.23;;
5149;SDS011;2593;52.466;13.436;2022-08-19T13:58:35;15.57;;;13.83;;
5149;SDS011;2593;52.466;13.436;2022-08-19T14:01:00;14.73;;;12.97;;
5149;SDS011;2593;52.466;13.436;2022-08-19T14:03:26;13.03;;;11.50;;
5149;SDS011;2593;52.466;13.436;2022-08-19T14:05:52;18.33;;;12.23;;
5149;SDS011;2593;52.466;13.436;2022-08-19T14:08:18;19.07;;;14.90;;
5149;SDS011;2593;52.466;13.436;2022-08-19T14:10:44;16.57;;;13.97;;
5149;SDS011;2593;52.466;13.436;2022-08-19T14:13:12;13.53;;;12.13;;
5149;SDS011;2593;52.466;13.436;2022-08-19T14:15:40;15.03;;;12.30;;
5149;SDS011;2593;52.466;13.436;2022-08-19T14:18:05;14.70;;;12.73;;
5149;SDS011;2593;52.466;13.436;2022-08-19T14:20:33;15.43;;;12.60;;
5149;SDS011;2593;52.466;13.436;2022-08-19T14:23:01;12.80;;;10.83;;
5149;SDS011;2593;52.466;13.436;2022-08-19T14:25:28;14.90;;;12.27;;
5149;SDS011;2593;52.466;13.436;2022-08-19T14:27:55;15.90;;;11.67;;
5149;SDS011;2593;52.466;13.436;2022-08-19T14:30:22;15.77;;;12.80;;
5149;SDS011;2593;52.466;13.436;2022-08-19T14:32:57;16.57;;;12.80;;
5149;SDS011;2593;52.466;13.436;2022-08-19T14:35:24;17.27;;;12.90;;
5149;SDS011;2593;52.466;13.436;2022-08-19T14:37:51;13.33;;;11.87;;
5149;SDS011;2593;52.466;13.436;2022-08-19T14:40:21;15.93;;;13.20;;
5149;SDS011;2593;52.466;13.436;2022-08-19T14:42:52;15.53;;;12.57;;
5149;SDS011;2593;52.466;13.436;2022-08-19T14:45:23;22.97;;;12.07;;
5149;SDS011;2593;52.466;13.436;2022-08-19T14:47:52;12.60;;;11.00;;
5149;SDS011;2593;52.466;13.436;2022-08-19T14:50:18;16.17;;;14.30;;
5149;SDS011;2593;52.466;13.436;2022-08-19T14:52:45;15.80;;;12.17;;
5149;SDS011;2593;52.466;13.436;2022-08-19T14:55:12;14.70;;;11.53;;